Time;durP1;ratioP1;P1;durP2;ratioP2;P2;SDS_P1;SDS_P2;PMS_P1;PMS_P2;Temp;Humidity;BMP_temperature;BMP_pressure;BME280_temperature;BME280_humidity;BME280_pressure;Samples;Min_cycle;Max_cycle;Signal;HPM_P1;HPM_P2
2023/09/13 00:02:16;;;;;;;5.70;4.93;;;19.10;99.90;;;;;;5069584;28;20582;-56
2023/09/13 00:04:43;;;;;;;5.30;4.80;;;19.10;99.90;;;;;;5066955;28;20274;-57
2023/09/13 00:07:10;;;;;;;4.47;4.27;;;19.10;99.90;;;;;;5071893;28;20201;-56
2023/09/13 00:09:40;;;;;;;4.23;3.93;;;19.10;99.90;;;;;;5070967;28;20225;-56
2023/09/13 00:12:08;;;;;;;4.50;4.20;;;19.10;99.90;;;;;;5069657;28;20201;-56
2023/09/13 00:14:35;;;;;;;4.40;4.10;;;19.10;99.90;;;;;;5071686;28;20311;-56
2023/09/13 00:17:02;;;;;;;6.30;4.70;;;19.20;99.90;;;;;;5065418;28;20197;-57
2023/09/13 00:19:31;;;;;;;4.50;4.20;;;19.20;99.90;;;;;;5071665;28;20199;-56
2023/09/13 00:21:58;;;;;;;5.60;3.63;;;19.20;99.90;;;;;;5070045;28;20296;-57
2023/09/13 00:24:25;;;;;;;5.87;4.60;;;19.20;99.90;;;;;;5071512;28;20221;-56
2023/09/13 00:26:52;;;;;;;5.77;5.30;;;19.20;99.90;;;;;;5071497;28;20261;-56
2023/09/13 00:29:19;;;;;;;5.57;5.07;;;19.20;99.90;;;;;;5062355;28;20217;-57
2023/09/13 00:31:46;;;;;;;7.23;6.43;;;19.20;99.90;;;;;;5069546;28;20243;-56
2023/09/13 00:34:13;;;;;;;10.37;6.83;;;19.10;99.90;;;;;;5071704;28;20263;-56
2023/09/13 00:36:41;;;;;;;6.50;5.97;;;19.10;99.90;;;;;;5071483;28;20201;-56
2023/09/13 00:39:08;;;;;;;8.37;5.87;;;19.10;99.90;;;;;;5071800;28;20201;-56
2023/09/13 00:41:35;;;;;;;6.37;5.73;;;19.00;99.90;;;;;;5062622;28;20558;-56
2023/09/13 00:44:02;;;;;;;5.50;5.20;;;19.00;99.90;;;;;;5066337;28;20276;-56
2023/09/13 00:46:29;;;;;;;6.30;5.47;;;19.00;99.90;;;;;;5071081;28;20192;-56
2023/09/13 00:48:57;;;;;;;6.53;4.90;;;19.00;99.90;;;;;;5071745;28;20278;-56
2023/09/13 00:51:25;;;;;;;8.83;6.47;;;19.00;99.90;;;;;;5064415;28;20201;-56
2023/09/13 00:53:54;;;;;;;6.43;5.93;;;19.00;99.90;;;;;;5065557;28;20199;-56
2023/09/13 00:56:21;;;;;;;6.80;6.07;;;19.00;99.90;;;;;;5068410;28;20621;-56
2023/09/13 00:58:51;;;;;;;5.33;4.87;;;19.00;99.90;;;;;;5071479;28;20285;-56
2023/09/13 01:01:18;;;;;;;5.63;5.13;;;18.90;99.90;;;;;;5065257;28;20319;-56
2023/09/13 01:03:46;;;;;;;8.60;4.60;;;19.00;99.90;;;;;;5071442;28;20579;-57
2023/09/13 01:06:14;;;;;;;6.13;5.60;;;19.00;99.90;;;;;;5067591;28;20201;-56
2023/09/13 01:08:41;;;;;;;8.40;4.93;;;19.00;99.90;;;;;;5063129;28;20254;-56
2023/09/13 01:11:10;;;;;;;9.53;5.70;;;19.00;99.90;;;;;;5056161;28;20202;-57
2023/09/13 01:13:38;;;;;;;5.00;4.70;;;19.00;99.90;;;;;;5064179;28;20227;-56
2023/09/13 01:16:14;;;;;;;5.93;5.43;;;19.00;99.90;;;;;;5064476;28;20229;-56
2023/09/13 01:18:50;;;;;;;6.97;4.77;;;18.90;99.90;;;;;;5052908;28;20292;-56
2023/09/13 01:21:36;;;;;;;4.90;4.40;;;18.90;99.90;;;;;;5061153;28;20212;-56
2023/09/13 01:24:25;;;;;;;7.10;6.37;;;18.90;99.90;;;;;;5072875;28;20236;-56
2023/09/13 01:27:17;;;;;;;6.60;6.07;;;18.80;99.90;;;;;;5034751;28;20225;-56
2023/09/13 01:29:47;;;;;;;5.47;5.00;;;18.80;99.90;;;;;;5035443;28;20222;-56
2023/09/13 01:32:14;;;;;;;7.40;6.80;;;18.70;99.90;;;;;;5066848;28;20193;-56
2023/09/13 01:34:41;;;;;;;6.57;6.00;;;18.70;99.90;;;;;;5074631;28;20217;-57
2023/09/13 01:37:08;;;;;;;7.33;6.63;;;18.70;99.90;;;;;;5074862;28;20270;-57
2023/09/13 01:39:35;;;;;;;8.27;6.23;;;18.70;99.90;;;;;;5073877;28;20607;-56
2023/09/13 01:42:07;;;;;;;8.57;5.33;;;18.70;99.90;;;;;;5068573;28;20541;-56
2023/09/13 01:44:40;;;;;;;6.40;5.77;;;18.60;99.90;;;;;;5066016;28;20696;-56
2023/09/13 01:47:09;;;;;;;7.07;6.43;;;18.60;99.90;;;;;;5074447;28;20204;-57
2023/09/13 01:49:37;;;;;;;8.40;7.77;;;18.60;99.90;;;;;;5069449;28;20217;-56
2023/09/13 01:52:06;;;;;;;11.63;7.10;;;18.60;99.90;;;;;;5068698;28;20201;-56
2023/09/13 01:54:34;;;;;;;6.53;5.87;;;18.50;99.90;;;;;;5071440;28;20300;-56
2023/09/13 01:57:01;;;;;;;7.50;6.90;;;18.50;99.90;;;;;;5051594;28;20289;-56
2023/09/13 01:59:28;;;;;;;7.53;6.73;;;18.50;99.90;;;;;;5055950;28;20285;-56
2023/09/13 02:01:55;;;;;;;7.03;6.33;;;18.50;99.90;;;;;;5068614;28;20329;-56
2023/09/13 02:04:23;;;;;;;7.33;6.53;;;18.50;99.90;;;;;;5074322;28;20217;-56
2023/09/13 02:06:50;;;;;;;8.60;7.47;;;18.50;99.90;;;;;;5063666;28;20193;-56
2023/09/13 02:09:20;;;;;;;7.50;6.20;;;18.40;99.90;;;;;;5074031;28;20292;-57
2023/09/13 02:11:47;;;;;;;6.33;5.83;;;18.40;99.90;;;;;;5069678;28;20217;-56
2023/09/13 02:14:17;;;;;;;7.80;7.20;;;18.40;99.90;;;;;;5073876;28;20221;-56
2023/09/13 02:16:44;;;;;;;8.27;7.67;;;18.50;99.90;;;;;;5065551;28;20225;-56
2023/09/13 02:19:11;;;;;;;7.70;7.10;;;18.50;99.90;;;;;;5074107;28;20189;-56
2023/09/13 02:21:39;;;;;;;6.47;5.97;;;18.40;99.90;;;;;;5069538;28;20201;-56
2023/09/13 02:24:07;;;;;;;10.07;7.80;;;18.30;99.90;;;;;;5073808;28;20270;-56
2023/09/13 02:26:34;;;;;;;7.27;6.77;;;18.30;99.90;;;;;;5073641;28;20263;-56
2023/09/13 02:29:01;;;;;;;6.97;6.57;;;18.30;99.90;;;;;;5069619;28;20282;-56
2023/09/13 02:31:29;;;;;;;7.37;6.70;;;18.30;99.90;;;;;;5069391;28;20235;-57
2023/09/13 02:33:57;;;;;;;8.27;7.47;;;18.30;99.90;;;;;;5060543;28;20198;-57
2023/09/13 02:36:24;;;;;;;7.57;6.83;;;18.30;99.90;;;;;;5070987;28;20287;-57
2023/09/13 02:38:53;;;;;;;7.83;7.13;;;18.30;99.90;;;;;;5073689;28;20198;-57
2023/09/13 02:41:20;;;;;;;6.90;6.30;;;18.40;99.90;;;;;;5066689;28;20297;-56
2023/09/13 02:43:47;;;;;;;7.73;7.00;;;18.40;99.90;;;;;;5068817;28;20232;-56
2023/09/13 02:46:14;;;;;;;8.17;7.47;;;18.30;99.90;;;;;;5069448;28;20247;-56
2023/09/13 02:48:41;;;;;;;7.33;6.50;;;18.40;99.90;;;;;;5033515;28;20237;-57
2023/09/13 02:51:13;;;;;;;8.97;7.63;;;18.40;99.90;;;;;;5033576;28;20210;-56
2023/09/13 02:53:40;;;;;;;8.30;7.50;;;18.30;99.90;;;;;;5041273;28;20280;-56
2023/09/13 02:56:08;;;;;;;8.73;8.03;;;18.30;99.90;;;;;;5068363;28;20608;-56
2023/09/13 02:58:37;;;;;;;9.83;6.43;;;18.30;99.90;;;;;;5073525;28;20197;-56
2023/09/13 03:01:09;;;;;;;9.67;6.17;;;18.20;99.90;;;;;;5073540;28;20201;-56
2023/09/13 03:03:36;;;;;;;8.83;8.03;;;18.20;99.90;;;;;;5070681;28;20209;-56
2023/09/13 03:06:07;;;;;;;8.50;7.70;;;18.20;99.90;;;;;;5058974;28;20218;-57
2023/09/13 03:08:34;;;;;;;8.57;7.77;;;18.20;99.90;;;;;;5072101;28;20287;-56
2023/09/13 03:11:11;;;;;;;9.70;8.80;;;18.20;99.90;;;;;;5073238;28;20201;-56
2023/09/13 03:13:38;;;;;;;9.17;8.27;;;18.20;99.90;;;;;;5070502;28;20284;-57
2023/09/13 03:16:12;;;;;;;9.40;8.50;;;18.20;99.90;;;;;;5047838;28;20304;-56
2023/09/13 03:18:39;;;;;;;7.80;7.00;;;18.20;99.90;;;;;;5080779;22;20315;-53
2023/09/13 03:21:08;;;;;;;7.00;6.30;;;18.10;99.90;;;;;;5071455;28;20637;-53
2023/09/13 03:23:37;;;;;;;7.87;7.17;;;18.10;99.90;;;;;;5068734;28;20285;-53
2023/09/13 03:26:13;;;;;;;7.53;6.93;;;18.00;99.90;;;;;;5054561;28;20194;-53
2023/09/13 03:28:40;;;;;;;7.17;6.50;;;18.10;99.90;;;;;;5064314;28;20240;-53
2023/09/13 03:31:10;;;;;;;10.87;7.37;;;18.00;99.90;;;;;;5052373;28;20198;-52
2023/09/13 03:33:37;;;;;;;7.63;7.07;;;18.00;99.90;;;;;;5050475;28;20210;-53
2023/09/13 03:36:04;;;;;;;5.73;5.27;;;18.00;99.90;;;;;;5051735;28;20259;-53
2023/09/13 03:38:31;;;;;;;7.37;6.33;;;18.00;99.90;;;;;;5051427;28;20716;-53
2023/09/13 03:40:58;;;;;;;8.27;7.13;;;18.00;99.90;;;;;;5050610;28;20194;-53
2023/09/13 03:43:27;;;;;;;7.53;6.87;;;18.00;99.90;;;;;;5049254;28;20255;-53
2023/09/13 03:45:53;;;;;;;8.00;7.30;;;18.00;99.90;;;;;;5047700;28;20283;-53
2023/09/13 03:48:21;;;;;;;6.80;6.20;;;18.00;99.90;;;;;;5050730;28;20225;-52
2023/09/13 03:50:47;;;;;;;7.70;7.07;;;18.00;99.90;;;;;;5055093;28;20690;-52
2023/09/13 03:53:14;;;;;;;7.13;6.53;;;18.10;99.90;;;;;;5047878;28;20244;-52
2023/09/13 03:55:42;;;;;;;7.37;6.67;;;18.10;99.90;;;;;;5049852;28;20585;-52
2023/09/13 03:58:09;;;;;;;6.93;6.43;;;18.00;99.90;;;;;;5051739;28;20248;-52
2023/09/13 04:00:37;;;;;;;7.37;6.87;;;18.10;99.90;;;;;;5051608;28;20190;-52
2023/09/13 04:03:05;;;;;;;8.00;7.13;;;18.10;99.90;;;;;;5049447;28;20241;-52
2023/09/13 04:05:32;;;;;;;9.57;6.83;;;18.00;99.90;;;;;;5048651;28;20197;-52
2023/09/13 04:07:59;;;;;;;7.93;7.13;;;17.90;99.90;;;;;;5055312;28;20197;-52
2023/09/13 04:10:26;;;;;;;9.00;7.93;;;17.90;99.90;;;;;;5051198;28;20217;-51
2023/09/13 04:12:53;;;;;;;7.63;7.13;;;17.90;99.90;;;;;;5051884;28;20209;-52
2023/09/13 04:15:20;;;;;;;8.20;7.50;;;17.80;99.90;;;;;;5049253;28;20522;-51
2023/09/13 04:17:49;;;;;;;8.17;7.47;;;17.70;99.90;;;;;;5051329;28;20201;-52
2023/09/13 04:20:16;;;;;;;8.70;7.80;;;17.70;99.90;;;;;;5051232;28;20371;-52
2023/09/13 04:22:43;;;;;;;8.87;7.97;;;17.60;99.90;;;;;;5042874;28;20656;-52
2023/09/13 04:25:10;;;;;;;9.13;7.47;;;17.60;99.90;;;;;;5049701;28;20194;-52
2023/09/13 04:27:37;;;;;;;7.93;7.43;;;17.60;99.90;;;;;;5051203;28;20202;-52
2023/09/13 04:30:05;;;;;;;9.10;8.30;;;17.70;99.90;;;;;;5050630;28;20692;-52
2023/09/13 04:32:33;;;;;;;8.27;7.60;;;17.60;99.90;;;;;;5051009;28;20209;-52
2023/09/13 04:35:02;;;;;;;8.53;7.83;;;17.60;99.90;;;;;;5049869;28;20278;-52
2023/09/13 04:37:30;;;;;;;8.60;7.80;;;17.60;99.90;;;;;;5050753;28;20217;-52
2023/09/13 04:39:57;;;;;;;8.30;7.47;;;17.60;99.90;;;;;;5051196;28;20225;-51
2023/09/13 04:42:24;;;;;;;8.57;7.87;;;17.50;99.90;;;;;;5050760;28;20202;-52
2023/09/13 04:44:51;;;;;;;10.67;8.33;;;17.50;99.90;;;;;;5049368;28;20214;-52
2023/09/13 04:47:18;;;;;;;9.93;8.70;;;17.50;99.90;;;;;;5049818;28;20673;-52
2023/09/13 04:49:45;;;;;;;10.63;9.00;;;17.50;99.90;;;;;;5050666;28;20313;-52
2023/09/13 04:52:13;;;;;;;11.53;9.53;;;17.60;99.90;;;;;;5049014;28;20197;-52
2023/09/13 04:54:40;;;;;;;9.33;8.53;;;17.60;99.90;;;;;;5050102;28;20205;-52
2023/09/13 04:57:07;;;;;;;8.97;8.07;;;17.60;99.90;;;;;;5049914;28;20268;-52
2023/09/13 04:59:45;;;;;;;9.13;8.33;;;17.50;99.90;;;;;;5053522;28;20214;-52
2023/09/13 05:02:12;;;;;;;9.23;8.47;;;17.50;99.90;;;;;;5053782;28;20255;-52
2023/09/13 05:04:39;;;;;;;8.63;7.83;;;17.50;99.90;;;;;;5054139;28;20297;-52
2023/09/13 05:07:06;;;;;;;7.57;7.03;;;17.50;99.90;;;;;;5054679;28;20573;-52
2023/09/13 05:09:36;;;;;;;9.30;8.20;;;17.50;99.90;;;;;;5053369;28;20225;-52
2023/09/13 05:12:03;;;;;;;9.30;8.40;;;17.40;99.90;;;;;;5053773;28;20197;-52
2023/09/13 05:14:30;;;;;;;11.23;10.00;;;17.50;99.90;;;;;;5054599;28;20197;-52
2023/09/13 05:16:57;;;;;;;9.37;7.67;;;17.50;99.90;;;;;;5054287;28;20213;-52
2023/09/13 05:19:24;;;;;;;8.93;8.03;;;17.40;99.90;;;;;;5052523;28;20226;-52
2023/09/13 05:21:51;;;;;;;8.43;7.63;;;17.50;99.90;;;;;;5053803;28;20252;-52
2023/09/13 05:24:18;;;;;;;8.93;8.03;;;17.50;99.90;;;;;;5041860;28;20285;-52
2023/09/13 05:26:47;;;;;;;10.93;9.10;;;17.50;99.90;;;;;;5042800;28;20198;-52
2023/09/13 05:29:14;;;;;;;9.03;8.00;;;17.50;99.90;;;;;;5053394;28;20235;-52
2023/09/13 05:31:41;;;;;;;12.13;8.03;;;17.50;99.90;;;;;;5051806;28;20198;-52
2023/09/13 05:34:08;;;;;;;10.07;9.13;;;17.60;99.90;;;;;;5058905;28;20735;-52
2023/09/13 05:36:34;;;;;;;9.30;8.50;;;17.70;99.90;;;;;;5055674;28;20289;-52
2023/09/13 05:39:03;;;;;;;9.80;8.80;;;17.80;99.90;;;;;;5055590;28;20469;-52
2023/09/13 05:41:30;;;;;;;10.43;9.50;;;17.90;99.90;;;;;;5054279;28;20264;-52
2023/09/13 05:43:58;;;;;;;13.90;9.43;;;18.00;99.90;;;;;;5054584;28;20205;-52
2023/09/13 05:46:25;;;;;;;9.27;8.47;;;18.10;99.90;;;;;;5054624;28;20202;-52
2023/09/13 05:48:52;;;;;;;10.50;8.33;;;18.30;99.90;;;;;;5054265;28;20282;-52
2023/09/13 05:51:19;;;;;;;7.73;7.00;;;18.50;99.90;;;;;;5053137;28;20282;-52
2023/09/13 05:53:46;;;;;;;10.60;7.20;;;18.80;99.90;;;;;;5054585;28;20204;-52
2023/09/13 05:56:14;;;;;;;8.37;7.57;;;19.50;99.90;;;;;;5052678;28;20301;-52
2023/09/13 05:58:43;;;;;;;8.37;7.70;;;20.10;99.90;;;;;;5054827;28;20299;-52
2023/09/13 06:01:11;;;;;;;10.50;8.37;;;20.20;99.90;;;;;;5058646;28;20190;-52
2023/09/13 06:03:38;;;;;;;8.97;8.20;;;20.10;99.90;;;;;;5052898;28;20312;-52
2023/09/13 06:06:05;;;;;;;11.10;9.03;;;20.00;99.90;;;;;;5053262;28;20209;-52
2023/09/13 06:08:32;;;;;;;11.67;7.83;;;19.70;99.90;;;;;;5057158;28;20225;-52
2023/09/13 06:11:00;;;;;;;17.30;12.63;;;19.40;99.90;;;;;;5048330;28;20225;-52
2023/09/13 06:13:27;;;;;;;17.20;11.87;;;19.20;99.90;;;;;;5053725;28;20194;-52
2023/09/13 06:15:54;;;;;;;10.83;8.80;;;19.10;99.90;;;;;;5052497;28;20264;-52
2023/09/13 06:18:23;;;;;;;8.23;6.97;;;18.90;99.90;;;;;;5053186;28;20230;-52
2023/09/13 06:20:50;;;;;;;9.40;8.50;;;18.90;99.90;;;;;;5053601;28;20695;-52
2023/09/13 06:23:36;;;;;;;8.87;7.17;;;18.90;99.90;;;;;;5049694;28;20214;-52
2023/09/13 06:26:05;;;;;;;8.97;6.33;;;18.90;99.90;;;;;;5049157;28;20351;-52
2023/09/13 06:28:32;;;;;;;7.07;6.57;;;18.90;99.90;;;;;;5046882;28;20245;-53
2023/09/13 06:31:00;;;;;;;6.83;6.33;;;18.90;99.90;;;;;;5049380;28;20250;-52
2023/09/13 06:33:29;;;;;;;6.90;6.30;;;18.90;99.90;;;;;;5052720;28;20247;-52
2023/09/13 06:35:57;;;;;;;7.53;6.93;;;18.90;99.90;;;;;;5053219;28;20202;-52
2023/09/13 06:38:24;;;;;;;6.00;5.67;;;18.90;99.90;;;;;;5052762;28;20326;-52
2023/09/13 06:40:51;;;;;;;7.17;6.30;;;19.00;99.90;;;;;;5053181;28;20205;-52
2023/09/13 06:43:19;;;;;;;6.87;5.33;;;19.10;99.90;;;;;;5056887;28;20206;-52
2023/09/13 06:45:48;;;;;;;7.67;7.07;;;19.20;99.90;;;;;;5050248;28;20198;-52
2023/09/13 06:48:15;;;;;;;6.40;5.93;;;19.20;99.90;;;;;;5052657;28;20237;-52
2023/09/13 06:50:44;;;;;;;7.50;6.67;;;19.40;99.90;;;;;;5052954;28;20638;-52
2023/09/13 06:53:12;;;;;;;11.30;6.93;;;19.50;99.90;;;;;;5050440;28;20247;-52
2023/09/13 06:55:39;;;;;;;6.27;5.63;;;19.60;99.90;;;;;;5050028;28;20285;-51
2023/09/13 06:58:08;;;;;;;5.47;5.07;;;19.70;99.90;;;;;;5052241;28;20277;-52
2023/09/13 07:00:35;;;;;;;5.43;5.07;;;19.80;99.90;;;;;;5052052;28;20254;-52
2023/09/13 07:03:04;;;;;;;5.70;5.20;;;20.00;99.90;;;;;;5052559;28;20650;-52
2023/09/13 07:05:31;;;;;;;9.67;5.53;;;20.20;99.90;;;;;;5053986;28;20288;-52
2023/09/13 07:08:00;;;;;;;4.93;4.60;;;20.50;99.90;;;;;;5053658;28;20232;-52
2023/09/13 07:10:27;;;;;;;5.07;4.67;;;20.70;99.90;;;;;;5052425;28;20310;-52
2023/09/13 07:12:54;;;;;;;5.63;5.10;;;20.80;99.90;;;;;;5052183;28;20772;-52
2023/09/13 07:15:21;;;;;;;6.50;5.57;;;20.90;99.90;;;;;;5048484;28;20259;-52
2023/09/13 07:17:48;;;;;;;6.37;5.87;;;21.00;99.90;;;;;;5051604;28;20688;-52
2023/09/13 07:20:15;;;;;;;7.50;4.67;;;21.10;99.90;;;;;;5050815;28;20202;-52
2023/09/13 07:22:42;;;;;;;5.10;4.67;;;21.30;99.90;;;;;;5051943;28;20212;-52
2023/09/13 07:25:10;;;;;;;5.03;4.73;;;21.20;99.90;;;;;;5051955;28;20252;-52
2023/09/13 07:27:37;;;;;;;5.10;4.60;;;21.30;99.90;;;;;;5051881;28;20259;-52
2023/09/13 07:30:10;;;;;;;6.27;4.60;;;21.50;99.90;;;;;;5051582;28;20218;-52
2023/09/13 07:32:37;;;;;;;4.30;4.00;;;21.60;99.90;;;;;;5051949;28;20205;-52
2023/09/13 07:35:05;;;;;;;4.93;4.57;;;21.60;99.90;;;;;;5051254;28;20289;-52
2023/09/13 07:37:37;;;;;;;7.33;5.63;;;21.50;99.90;;;;;;5050103;28;20339;-53
2023/09/13 07:40:05;;;;;;;4.63;4.30;;;21.40;99.90;;;;;;5051674;28;20210;-52
2023/09/13 07:42:35;;;;;;;6.47;5.80;;;21.20;99.90;;;;;;5051487;28;20287;-52
2023/09/13 07:45:02;;;;;;;7.10;5.50;;;21.10;99.90;;;;;;5046418;28;20212;-53
2023/09/13 07:47:29;;;;;;;6.23;5.73;;;21.10;99.90;;;;;;5051333;28;20202;-52
2023/09/13 07:49:59;;;;;;;6.60;5.53;;;20.90;99.90;;;;;;5050982;28;20272;-52
2023/09/13 07:52:26;;;;;;;7.03;5.83;;;20.70;99.90;;;;;;5047296;28;20210;-52
2023/09/13 07:54:53;;;;;;;5.70;5.20;;;20.70;99.90;;;;;;5042767;28;20553;-52
2023/09/13 07:57:21;;;;;;;6.70;6.07;;;20.60;99.90;;;;;;5051213;28;20201;-52
2023/09/13 07:59:50;;;;;;;5.40;5.03;;;20.60;99.90;;;;;;5042743;28;20845;-52
2023/09/13 08:02:18;;;;;;;6.07;5.57;;;20.50;99.90;;;;;;5051437;28;20286;-52
2023/09/13 08:04:45;;;;;;;5.87;5.57;;;20.50;99.90;;;;;;5050998;28;20241;-52
2023/09/13 08:07:12;;;;;;;7.60;5.83;;;20.50;99.90;;;;;;5051104;28;20677;-52
2023/09/13 08:09:39;;;;;;;5.85;5.40;;;20.50;99.90;;;;;;5047565;28;20501;-57
2023/09/13 08:12:07;;;;;;;7.63;5.27;;;20.50;99.90;;;;;;5045862;28;20299;-56
2023/09/13 08:14:34;;;;;;;6.87;6.17;;;20.60;99.90;;;;;;5049459;28;20287;-56
2023/09/13 08:17:02;;;;;;;5.67;5.37;;;20.70;99.90;;;;;;5047107;28;20206;-57
2023/09/13 08:19:29;;;;;;;5.30;4.90;;;20.60;99.90;;;;;;5040807;28;20295;-57
2023/09/13 08:21:56;;;;;;;5.80;5.20;;;20.70;99.90;;;;;;5049661;28;20202;-56
2023/09/13 08:24:23;;;;;;;5.23;4.83;;;20.70;99.90;;;;;;5050467;28;20255;-57
2023/09/13 08:26:50;;;;;;;8.50;5.43;;;20.70;99.90;;;;;;5050329;28;20727;-57
2023/09/13 08:29:19;;;;;;;4.80;4.50;;;20.60;99.90;;;;;;5048770;28;20288;-57
2023/09/13 08:31:46;;;;;;;5.07;4.77;;;20.80;99.90;;;;;;5050378;28;20229;-57
2023/09/13 08:34:15;;;;;;;5.20;4.80;;;20.80;99.90;;;;;;5045862;28;20723;-58
2023/09/13 08:36:42;;;;;;;7.10;4.80;;;20.90;99.90;;;;;;5049655;28;20205;-58
2023/09/13 08:39:09;;;;;;;8.07;4.70;;;20.90;99.90;;;;;;5050605;28;20279;-58
2023/09/13 08:41:36;;;;;;;6.67;4.30;;;20.90;99.90;;;;;;5050606;28;20665;-59
2023/09/13 08:44:06;;;;;;;4.30;3.90;;;20.90;99.90;;;;;;5050889;28;20673;-58
2023/09/13 08:46:33;;;;;;;5.73;4.80;;;20.90;99.90;;;;;;5047048;28;20205;-58
2023/09/13 08:49:02;;;;;;;4.80;4.47;;;20.90;99.90;;;;;;5050595;28;20273;-59
2023/09/13 08:51:32;;;;;;;4.53;4.33;;;21.00;99.90;;;;;;5050704;28;20296;-59
2023/09/13 08:53:59;;;;;;;4.73;4.30;;;21.10;99.90;;;;;;5051009;28;20228;-58
2023/09/13 08:56:29;;;;;;;5.43;4.87;;;21.20;99.90;;;;;;5047450;28;20201;-59
2023/09/13 08:58:56;;;;;;;4.57;4.27;;;21.10;99.90;;;;;;5049632;28;20272;-59
2023/09/13 09:01:26;;;;;;;3.93;3.63;;;21.00;99.90;;;;;;5050397;28;20198;-59
2023/09/13 09:03:53;;;;;;;5.07;4.67;;;20.90;99.90;;;;;;5043686;28;20193;-59
2023/09/13 09:06:22;;;;;;;4.87;4.20;;;21.00;99.90;;;;;;5047826;28;20561;-59
2023/09/13 09:08:52;;;;;;;4.57;4.17;;;20.90;99.90;;;;;;5048976;28;20267;-61
2023/09/13 09:11:21;;;;;;;5.20;4.50;;;20.80;99.90;;;;;;5050537;28;20287;-59
2023/09/13 09:13:49;;;;;;;4.40;4.10;;;20.70;99.90;;;;;;5050919;28;20194;-60
2023/09/13 09:16:18;;;;;;;6.40;4.67;;;20.70;99.90;;;;;;5046777;28;20206;-60
2023/09/13 09:18:46;;;;;;;3.63;3.23;;;20.70;99.90;;;;;;5096939;22;20228;-57
2023/09/13 09:21:14;;;;;;;4.77;3.93;;;20.70;99.90;;;;;;5082426;28;20192;-58
2023/09/13 09:23:42;;;;;;;4.13;3.83;;;20.70;99.90;;;;;;5090663;28;20222;-58
2023/09/13 09:26:11;;;;;;;5.30;4.13;;;20.60;99.90;;;;;;5072471;28;20617;-58
2023/09/13 09:28:39;;;;;;;4.17;3.87;;;20.60;99.90;;;;;;5068614;28;20229;-58
2023/09/13 09:31:07;;;;;;;4.70;4.33;;;20.50;99.90;;;;;;5067999;28;20217;-57
2023/09/13 09:33:37;;;;;;;5.03;3.97;;;20.40;99.90;;;;;;5068662;28;20211;-57
2023/09/13 09:36:04;;;;;;;4.50;4.23;;;20.40;99.90;;;;;;5063590;28;20672;-56
2023/09/13 09:38:31;;;;;;;4.60;4.40;;;20.40;99.90;;;;;;5058474;28;20751;-57
2023/09/13 09:41:01;;;;;;;4.53;4.23;;;20.30;99.90;;;;;;5063369;28;20197;-52
2023/09/13 09:43:31;;;;;;;4.50;4.10;;;20.40;99.90;;;;;;5071351;28;20201;-52
2023/09/13 09:46:01;;;;;;;4.20;3.90;;;20.50;99.90;;;;;;5063484;28;20200;-54
2023/09/13 09:48:29;;;;;;;4.23;3.83;;;20.50;99.90;;;;;;5064876;28;20225;-54
2023/09/13 09:50:56;;;;;;;4.20;4.00;;;20.50;99.90;;;;;;5066090;28;20235;-55
2023/09/13 09:53:24;;;;;;;3.97;3.77;;;20.50;99.90;;;;;;5062514;28;20201;-55
2023/09/13 09:55:53;;;;;;;4.00;3.80;;;20.50;99.90;;;;;;5065011;28;20255;-55
2023/09/13 09:58:22;;;;;;;3.77;3.57;;;20.40;99.90;;;;;;5054349;28;20334;-54
2023/09/13 10:00:52;;;;;;;6.13;3.17;;;20.50;99.90;;;;;;5064034;28;20193;-55
2023/09/13 10:03:20;;;;;;;4.60;4.30;;;20.50;99.90;;;;;;5072668;28;20197;-54
2023/09/13 10:05:55;;;;;;;3.77;3.47;;;20.60;99.90;;;;;;5068686;28;20258;-54
2023/09/13 10:08:38;;;;;;;4.77;3.83;;;20.60;99.90;;;;;;5068373;28;20589;-54
2023/09/13 10:11:06;;;;;;;3.80;3.60;;;20.70;99.90;;;;;;5061953;28;20357;-53
2023/09/13 10:13:33;;;;;;;3.77;3.40;;;20.70;99.90;;;;;;5063346;28;20201;-54
2023/09/13 10:16:03;;;;;;;4.17;3.57;;;20.80;99.90;;;;;;5065929;28;20197;-56
2023/09/13 10:18:33;;;;;;;3.53;3.33;;;20.90;99.90;;;;;;5063492;28;20603;-57
2023/09/13 10:21:02;;;;;;;3.77;3.57;;;20.90;99.90;;;;;;5063537;28;20734;-57
2023/09/13 10:23:36;;;;;;;3.23;3.00;;;21.00;99.90;;;;;;5072012;28;20695;-54
2023/09/13 10:26:07;;;;;;;3.93;3.73;;;21.00;99.90;;;;;;5061255;28;20672;-56
2023/09/13 10:28:37;;;;;;;3.23;3.13;;;21.10;99.90;;;;;;5070948;28;20274;-56
2023/09/13 10:31:09;;;;;;;3.57;3.40;;;21.00;99.90;;;;;;5066345;28;20314;-53
2023/09/13 10:33:38;;;;;;;4.27;3.53;;;20.90;99.90;;;;;;5059430;28;20300;-53
2023/09/13 10:36:11;;;;;;;3.97;3.60;;;20.90;99.90;;;;;;5071067;28;20255;-53
2023/09/13 10:38:45;;;;;;;5.73;3.80;;;20.90;99.90;;;;;;5073134;28;20221;-53
2023/09/13 10:41:17;;;;;;;5.40;4.90;;;20.80;99.90;;;;;;5073139;28;20247;-53
2023/09/13 10:43:46;;;;;;;4.37;4.00;;;20.80;99.90;;;;;;5071957;28;20699;-53
2023/09/13 10:46:15;;;;;;;4.63;4.23;;;20.70;99.90;;;;;;5070844;28;20219;-53
2023/09/13 10:48:45;;;;;;;4.03;3.73;;;20.70;99.90;;;;;;5092183;28;20353;-53
2023/09/13 10:51:13;;;;;;;5.03;4.27;;;20.70;99.90;;;;;;5080742;28;20220;-53
2023/09/13 10:53:42;;;;;;;4.50;4.30;;;20.70;99.90;;;;;;5067381;28;20284;-56
2023/09/13 10:56:11;;;;;;;5.27;4.87;;;20.60;99.90;;;;;;5059965;28;20194;-56
2023/09/13 10:58:40;;;;;;;5.17;4.87;;;20.70;99.90;;;;;;5061047;28;20225;-56
2023/09/13 11:01:07;;;;;;;7.20;5.10;;;20.70;99.90;;;;;;5060206;28;20194;-55
2023/09/13 11:03:36;;;;;;;4.93;4.53;;;20.70;99.90;;;;;;5060729;28;20198;-55
2023/09/13 11:06:04;;;;;;;3.43;3.23;;;20.70;99.90;;;;;;5052356;28;20194;-60
2023/09/13 11:08:32;;;;;;;8.10;4.60;;;20.60;99.90;;;;;;5061060;28;20216;-60
2023/09/13 11:11:08;;;;;;;4.20;4.10;;;20.60;99.90;;;;;;5068512;28;20205;-57
2023/09/13 11:13:35;;;;;;;4.30;4.10;;;20.70;99.90;;;;;;5068982;28;20201;-57
2023/09/13 11:16:03;;;;;;;6.00;3.63;;;20.70;99.90;;;;;;5054212;28;20256;-52
2023/09/13 11:18:31;;;;;;;4.73;4.43;;;20.70;99.90;;;;;;5062685;28;20227;-57
2023/09/13 11:21:00;;;;;;;4.73;4.37;;;20.70;99.90;;;;;;5071165;28;20288;-58
2023/09/13 11:23:27;;;;;;;4.87;4.27;;;20.80;99.90;;;;;;5070355;28;20213;-58
2023/09/13 11:25:55;;;;;;;4.93;4.63;;;20.80;99.90;;;;;;5051826;28;20198;-58
2023/09/13 11:28:30;;;;;;;5.07;4.67;;;20.90;99.90;;;;;;5059638;28;20197;-59
2023/09/13 11:30:58;;;;;;;5.37;4.97;;;21.00;99.90;;;;;;5063864;28;20667;-58
2023/09/13 11:33:27;;;;;;;6.87;5.00;;;21.00;99.90;;;;;;5063493;28;20630;-58
2023/09/13 11:35:57;;;;;;;5.30;4.97;;;20.90;99.90;;;;;;5055342;28;20284;-58
2023/09/13 11:38:26;;;;;;;5.10;4.57;;;20.80;99.90;;;;;;5059694;28;20236;-57
2023/09/13 11:40:56;;;;;;;6.07;5.37;;;20.90;99.90;;;;;;5063503;28;20247;-58
2023/09/13 11:43:24;;;;;;;7.20;5.00;;;20.80;99.90;;;;;;5070744;28;20197;-58
2023/09/13 11:45:52;;;;;;;4.67;4.23;;;20.80;99.90;;;;;;5053588;28;20197;-58
2023/09/13 11:48:29;;;;;;;3.70;3.33;;;20.90;99.90;;;;;;5060562;28;20209;-58
2023/09/13 11:50:57;;;;;;;4.27;3.97;;;20.80;99.90;;;;;;5059973;28;20276;-58
2023/09/13 11:53:28;;;;;;;4.40;4.10;;;20.80;99.90;;;;;;5070378;28;20231;-59
2023/09/13 11:55:56;;;;;;;4.20;3.90;;;20.90;99.90;;;;;;5051490;28;20218;-58
2023/09/13 11:58:34;;;;;;;3.90;3.63;;;20.90;99.90;;;;;;5059040;28;20201;-59
2023/09/13 12:01:03;;;;;;;3.17;3.07;;;20.90;99.90;;;;;;5064119;28;20197;-56
2023/09/13 12:03:30;;;;;;;5.07;4.60;;;20.90;99.90;;;;;;5069697;28;20200;-56
2023/09/13 12:05:57;;;;;;;5.47;4.43;;;20.90;99.90;;;;;;5056972;28;20198;-57
2023/09/13 12:08:28;;;;;;;4.07;3.87;;;20.70;99.90;;;;;;5062293;28;20284;-56
2023/09/13 12:10:56;;;;;;;4.50;4.13;;;20.70;99.90;;;;;;5063100;28;20284;-55
2023/09/13 12:13:41;;;;;;;4.47;4.17;;;20.80;99.90;;;;;;5070686;28;20307;-55
2023/09/13 12:16:09;;;;;;;22.27;4.77;;;20.70;99.90;;;;;;5071400;28;20205;-55
2023/09/13 12:18:38;;;;;;;3.83;3.60;;;20.70;99.90;;;;;;5071403;28;20290;-60
2023/09/13 12:21:06;;;;;;;6.00;5.50;;;20.80;99.90;;;;;;5069972;28;20262;-58
2023/09/13 12:23:36;;;;;;;7.00;4.77;;;20.90;99.90;;;;;;5067924;28;20201;-58
2023/09/13 12:26:05;;;;;;;8.57;5.03;;;21.00;99.90;;;;;;5061678;28;20296;-58
2023/09/13 12:28:34;;;;;;;5.77;5.17;;;21.10;99.90;;;;;;5065928;28;20229;-57
2023/09/13 12:31:05;;;;;;;6.00;5.63;;;21.20;99.90;;;;;;5065041;28;20786;-57
2023/09/13 12:33:32;;;;;;;6.13;5.53;;;21.20;99.90;;;;;;5076566;28;20220;-57
2023/09/13 12:36:00;;;;;;;5.23;4.93;;;21.10;99.90;;;;;;5069161;28;20565;-57
2023/09/13 12:38:32;;;;;;;6.23;5.57;;;21.20;99.90;;;;;;5069405;28;20617;-58
2023/09/13 12:41:01;;;;;;;6.47;4.93;;;21.20;99.90;;;;;;5059661;28;20194;-58
2023/09/13 12:43:30;;;;;;;4.07;3.87;;;21.10;99.90;;;;;;5070865;28;20625;-58
2023/09/13 12:45:58;;;;;;;4.57;4.30;;;21.20;99.90;;;;;;5065384;28;20194;-58
2023/09/13 12:48:26;;;;;;;8.07;4.90;;;21.30;99.90;;;;;;5066338;28;20216;-57
2023/09/13 12:50:54;;;;;;;4.57;4.30;;;21.30;99.90;;;;;;5054407;28;20197;-58
2023/09/13 12:53:21;;;;;;;3.93;3.67;;;21.30;99.90;;;;;;5070737;28;20228;-58